Terminal Aerodrome Forecast
Issued by NWS Northern Indiana

Home | Current Version | Previous Version | Text Only | Print | Product List | Glossary Off
Versions: 1 2 3 4 5 6 7 8 9 10 11 12 13 14 15 16

000
FTUS43 KIWX 182332
TAFFWA
TAF
KFWA 182332Z 1900/1924 25007KT P6SM SCT200
     FM190600 23003KT P6SM VCSH SCT030 BKN050
      TEMPO 1909/1913 BKN025
     FM191500 30007KT P6SM SCT040=

USA.gov is the U.S. government's official web portal to all federal, state and local government web resources and services.